sensor_id;sensor_type;location;lat;lon;timestamp;temperature;humidity
46137;DHT22;31871;49.418;8.752;2022-12-07T00:00:42;5.10;99.90
46137;DHT22;31871;49.418;8.752;2022-12-07T00:03:08;5.00;99.90
46137;DHT22;31871;49.418;8.752;2022-12-07T00:05:33;5.00;99.90
46137;DHT22;31871;49.418;8.752;2022-12-07T00:07:59;4.90;99.90
46137;DHT22;31871;49.418;8.752;2022-12-07T00:10:24;4.90;99.90
46137;DHT22;31871;49.418;8.752;2022-12-07T00:12:50;4.90;99.90
46137;DHT22;31871;49.418;8.752;2022-12-07T00:15:16;4.80;99.90
46137;DHT22;31871;49.418;8.752;2022-12-07T00:17:41;4.80;99.90
46137;DHT22;31871;49.418;8.752;2022-12-07T00:20:07;4.80;99.90
46137;DHT22;31871;49.418;8.752;2022-12-07T00:22:32;4.90;99.90
46137;DHT22;31871;49.418;8.752;2022-12-07T00:24:58;4.80;99.90
46137;DHT22;31871;49.418;8.752;2022-12-07T00:27:23;4.90;99.90
46137;DHT22;31871;49.418;8.752;2022-12-07T00:29:49;5.00;99.90
46137;DHT22;31871;49.418;8.752;2022-12-07T00:32:14;4.80;99.90
46137;DHT22;31871;49.418;8.752;2022-12-07T00:34:40;4.70;99.90
46137;DHT22;31871;49.418;8.752;2022-12-07T00:37:05;4.50;99.90
46137;DHT22;31871;49.418;8.752;2022-12-07T00:39:31;4.40;99.90
46137;DHT22;31871;49.418;8.752;2022-12-07T00:41:56;4.40;99.90
46137;DHT22;31871;49.418;8.752;2022-12-07T00:44:22;4.50;99.90
46137;DHT22;31871;49.418;8.752;2022-12-07T00:46:48;4.50;99.90
46137;DHT22;31871;49.418;8.752;2022-12-07T00:49:13;4.60;99.90
46137;DHT22;31871;49.418;8.752;2022-12-07T00:51:39;4.70;99.90
46137;DHT22;31871;49.418;8.752;2022-12-07T00:54:04;4.80;99.90
46137;DHT22;31871;49.418;8.752;2022-12-07T00:56:30;4.80;99.90
46137;DHT22;31871;49.418;8.752;2022-12-07T00:58:59;5.00;99.90
46137;DHT22;31871;49.418;8.752;2022-12-07T01:01:27;4.90;99.90
46137;DHT22;31871;49.418;8.752;2022-12-07T01:03:53;4.80;99.90
46137;DHT22;31871;49.418;8.752;2022-12-07T01:06:20;4.80;99.90
46137;DHT22;31871;49.418;8.752;2022-12-07T01:08:46;4.80;99.90
46137;DHT22;31871;49.418;8.752;2022-12-07T01:11:14;4.80;99.90
46137;DHT22;31871;49.418;8.752;2022-12-07T01:13:40;4.60;99.90
46137;DHT22;31871;49.418;8.752;2022-12-07T01:16:06;4.50;99.90
46137;DHT22;31871;49.418;8.752;2022-12-07T01:18:35;4.40;99.90
46137;DHT22;31871;49.418;8.752;2022-12-07T01:21:14;4.40;99.90
46137;DHT22;31871;49.418;8.752;2022-12-07T01:23:41;4.70;99.90
46137;DHT22;31871;49.418;8.752;2022-12-07T01:26:09;4.70;99.90
46137;DHT22;31871;49.418;8.752;2022-12-07T01:28:36;4.60;99.90
46137;DHT22;31871;49.418;8.752;2022-12-07T01:31:09;4.60;99.90
46137;DHT22;31871;49.418;8.752;2022-12-07T01:33:38;4.60;99.90
46137;DHT22;31871;49.418;8.752;2022-12-07T01:36:12;4.70;99.90
46137;DHT22;31871;49.418;8.752;2022-12-07T01:38:38;4.70;99.90
46137;DHT22;31871;49.418;8.752;2022-12-07T01:41:04;4.80;99.90
46137;DHT22;31871;49.418;8.752;2022-12-07T01:43:31;4.80;99.90
46137;DHT22;31871;49.418;8.752;2022-12-07T01:45:57;4.80;99.90
46137;DHT22;31871;49.418;8.752;2022-12-07T01:48:31;4.80;99.90
46137;DHT22;31871;49.418;8.752;2022-12-07T01:51:04;4.90;99.90
46137;DHT22;31871;49.418;8.752;2022-12-07T01:53:32;4.80;99.90
46137;DHT22;31871;49.418;8.752;2022-12-07T01:56:00;4.80;99.90
46137;DHT22;31871;49.418;8.752;2022-12-07T01:58:26;4.80;99.90
46137;DHT22;31871;49.418;8.752;2022-12-07T02:00:51;4.80;99.90
46137;DHT22;31871;49.418;8.752;2022-12-07T02:03:22;4.80;99.90
46137;DHT22;31871;49.418;8.752;2022-12-07T02:05:50;4.90;99.90
46137;DHT22;31871;49.418;8.752;2022-12-07T02:08:16;4.80;99.90
46137;DHT22;31871;49.418;8.752;2022-12-07T02:10:43;4.90;99.90
46137;DHT22;31871;49.418;8.752;2022-12-07T02:13:41;4.90;99.90
46137;DHT22;31871;49.418;8.752;2022-12-07T02:30:19;4.60;99.90
46137;DHT22;31871;49.418;8.752;2022-12-07T02:33:00;4.50;99.90
46137;DHT22;31871;49.418;8.752;2022-12-07T02:35:40;4.40;99.90
46137;DHT22;31871;49.418;8.752;2022-12-07T02:38:14;4.40;99.90
46137;DHT22;31871;49.418;8.752;2022-12-07T02:40:52;4.40;99.90
46137;DHT22;31871;49.418;8.752;2022-12-07T02:43:28;4.40;99.90
46137;DHT22;31871;49.418;8.752;2022-12-07T02:46:01;4.40;99.90
46137;DHT22;31871;49.418;8.752;2022-12-07T02:48:28;4.40;99.90
46137;DHT22;31871;49.418;8.752;2022-12-07T02:50:54;4.40;99.90
46137;DHT22;31871;49.418;8.752;2022-12-07T02:53:35;4.40;99.90
46137;DHT22;31871;49.418;8.752;2022-12-07T02:59:38;4.50;99.90
46137;DHT22;31871;49.418;8.752;2022-12-07T03:05:13;4.40;99.90
46137;DHT22;31871;49.418;8.752;2022-12-07T03:10:22;4.50;99.90
46137;DHT22;31871;49.418;8.752;2022-12-07T03:16:02;4.50;99.90
46137;DHT22;31871;49.418;8.752;2022-12-07T03:18:33;4.50;99.90
46137;DHT22;31871;49.418;8.752;2022-12-07T03:21:06;4.50;99.90
46137;DHT22;31871;49.418;8.752;2022-12-07T03:23:35;4.50;99.90
46137;DHT22;31871;49.418;8.752;2022-12-07T03:26:03;4.50;99.90
46137;DHT22;31871;49.418;8.752;2022-12-07T03:28:35;4.60;99.90
46137;DHT22;31871;49.418;8.752;2022-12-07T03:31:15;4.50;99.90
46137;DHT22;31871;49.418;8.752;2022-12-07T03:39:21;4.50;99.90
46137;DHT22;31871;49.418;8.752;2022-12-07T03:41:48;4.40;99.90
46137;DHT22;31871;49.418;8.752;2022-12-07T03:44:15;4.40;99.90
46137;DHT22;31871;49.418;8.752;2022-12-07T03:49:40;4.40;99.90
46137;DHT22;31871;49.418;8.752;2022-12-07T03:52:39;4.40;99.90
46137;DHT22;31871;49.418;8.752;2022-12-07T03:55:10;4.50;99.90
46137;DHT22;31871;49.418;8.752;2022-12-07T03:57:37;4.50;99.90
46137;DHT22;31871;49.418;8.752;2022-12-07T04:00:06;4.50;99.90
46137;DHT22;31871;49.418;8.752;2022-12-07T04:02:33;4.40;99.90
46137;DHT22;31871;49.418;8.752;2022-12-07T04:04:58;4.40;99.90
46137;DHT22;31871;49.418;8.752;2022-12-07T04:07:25;4.40;99.90
46137;DHT22;31871;49.418;8.752;2022-12-07T04:09:50;4.40;99.90
46137;DHT22;31871;49.418;8.752;2022-12-07T04:12:16;4.30;99.90
46137;DHT22;31871;49.418;8.752;2022-12-07T04:14:41;4.30;99.90
46137;DHT22;31871;49.418;8.752;2022-12-07T04:17:08;4.20;99.90
46137;DHT22;31871;49.418;8.752;2022-12-07T04:19:34;4.30;99.90
46137;DHT22;31871;49.418;8.752;2022-12-07T04:22:01;4.20;99.90
46137;DHT22;31871;49.418;8.752;2022-12-07T04:24:27;4.20;99.90
46137;DHT22;31871;49.418;8.752;2022-12-07T04:26:53;4.20;99.90
46137;DHT22;31871;49.418;8.752;2022-12-07T04:29:20;4.30;99.90
46137;DHT22;31871;49.418;8.752;2022-12-07T04:31:46;4.30;99.90
46137;DHT22;31871;49.418;8.752;2022-12-07T04:34:12;4.30;99.90
46137;DHT22;31871;49.418;8.752;2022-12-07T04:36:39;4.30;99.90
46137;DHT22;31871;49.418;8.752;2022-12-07T04:39:06;4.30;99.90
46137;DHT22;31871;49.418;8.752;2022-12-07T04:41:32;4.30;99.90
46137;DHT22;31871;49.418;8.752;2022-12-07T04:44:00;4.30;99.90
46137;DHT22;31871;49.418;8.752;2022-12-07T04:46:27;4.20;99.90
46137;DHT22;31871;49.418;8.752;2022-12-07T04:48:54;4.20;99.90
46137;DHT22;31871;49.418;8.752;2022-12-07T04:51:26;4.20;99.90
46137;DHT22;31871;49.418;8.752;2022-12-07T04:53:53;4.20;99.90
46137;DHT22;31871;49.418;8.752;2022-12-07T04:56:18;4.20;99.90
46137;DHT22;31871;49.418;8.752;2022-12-07T04:58:46;4.20;99.90
46137;DHT22;31871;49.418;8.752;2022-12-07T05:01:12;4.20;99.90
46137;DHT22;31871;49.418;8.752;2022-12-07T05:03:38;4.20;99.90
46137;DHT22;31871;49.418;8.752;2022-12-07T05:06:04;4.20;99.90
46137;DHT22;31871;49.418;8.752;2022-12-07T05:08:31;4.20;99.90
46137;DHT22;31871;49.418;8.752;2022-12-07T05:10:57;4.20;99.90
46137;DHT22;31871;49.418;8.752;2022-12-07T05:13:22;4.30;99.90
46137;DHT22;31871;49.418;8.752;2022-12-07T05:15:48;4.30;99.90
46137;DHT22;31871;49.418;8.752;2022-12-07T05:18:15;4.20;99.90
46137;DHT22;31871;49.418;8.752;2022-12-07T05:20:41;4.20;99.90
46137;DHT22;31871;49.418;8.752;2022-12-07T05:23:06;4.20;99.90
46137;DHT22;31871;49.418;8.752;2022-12-07T05:25:32;4.10;99.90
46137;DHT22;31871;49.418;8.752;2022-12-07T05:27:58;4.10;99.90
46137;DHT22;31871;49.418;8.752;2022-12-07T05:30:25;4.10;99.90
46137;DHT22;31871;49.418;8.752;2022-12-07T05:32:51;4.20;99.90
46137;DHT22;31871;49.418;8.752;2022-12-07T05:35:17;4.40;99.90
46137;DHT22;31871;49.418;8.752;2022-12-07T05:37:43;4.30;99.90
46137;DHT22;31871;49.418;8.752;2022-12-07T05:40:09;4.50;99.90
46137;DHT22;31871;49.418;8.752;2022-12-07T05:42:35;4.50;99.90
46137;DHT22;31871;49.418;8.752;2022-12-07T05:45:01;4.50;99.90
46137;DHT22;31871;49.418;8.752;2022-12-07T05:47:27;4.50;99.90
46137;DHT22;31871;49.418;8.752;2022-12-07T05:49:52;4.40;99.90
46137;DHT22;31871;49.418;8.752;2022-12-07T05:52:18;4.40;99.90
46137;DHT22;31871;49.418;8.752;2022-12-07T05:54:44;4.30;99.90
46137;DHT22;31871;49.418;8.752;2022-12-07T05:57:10;4.30;99.90
46137;DHT22;31871;49.418;8.752;2022-12-07T05:59:35;4.20;99.90
46137;DHT22;31871;49.418;8.752;2022-12-07T06:02:06;4.20;99.90
46137;DHT22;31871;49.418;8.752;2022-12-07T06:04:38;4.20;99.90
46137;DHT22;31871;49.418;8.752;2022-12-07T06:07:04;4.30;99.90
46137;DHT22;31871;49.418;8.752;2022-12-07T06:09:30;4.40;99.90
46137;DHT22;31871;49.418;8.752;2022-12-07T06:11:56;4.30;99.90
46137;DHT22;31871;49.418;8.752;2022-12-07T06:14:41;4.30;99.90
46137;DHT22;31871;49.418;8.752;2022-12-07T06:17:07;4.20;99.90
46137;DHT22;31871;49.418;8.752;2022-12-07T06:19:33;4.20;99.90
46137;DHT22;31871;49.418;8.752;2022-12-07T06:21:59;4.20;99.90
46137;DHT22;31871;49.418;8.752;2022-12-07T06:24:24;4.20;99.90
46137;DHT22;31871;49.418;8.752;2022-12-07T06:26:50;4.20;99.90
46137;DHT22;31871;49.418;8.752;2022-12-07T06:29:16;4.10;99.90
46137;DHT22;31871;49.418;8.752;2022-12-07T06:31:42;4.10;99.90
46137;DHT22;31871;49.418;8.752;2022-12-07T06:34:14;4.10;99.90
46137;DHT22;31871;49.418;8.752;2022-12-07T06:36:40;4.10;99.90
46137;DHT22;31871;49.418;8.752;2022-12-07T06:39:06;4.30;99.90
46137;DHT22;31871;49.418;8.752;2022-12-07T06:41:33;4.40;99.90
46137;DHT22;31871;49.418;8.752;2022-12-07T06:43:58;4.30;99.90
46137;DHT22;31871;49.418;8.752;2022-12-07T06:46:24;4.20;99.90
46137;DHT22;31871;49.418;8.752;2022-12-07T06:48:50;4.10;99.90
46137;DHT22;31871;49.418;8.752;2022-12-07T06:51:15;4.10;99.90
46137;DHT22;31871;49.418;8.752;2022-12-07T06:53:41;4.00;99.90
46137;DHT22;31871;49.418;8.752;2022-12-07T06:56:07;4.00;99.90
46137;DHT22;31871;49.418;8.752;2022-12-07T06:58:32;4.00;99.90
46137;DHT22;31871;49.418;8.752;2022-12-07T07:00:58;4.00;99.90
46137;DHT22;31871;49.418;8.752;2022-12-07T07:03:24;4.00;99.90
46137;DHT22;31871;49.418;8.752;2022-12-07T07:05:50;4.00;99.90
46137;DHT22;31871;49.418;8.752;2022-12-07T07:08:15;4.10;99.90
46137;DHT22;31871;49.418;8.752;2022-12-07T07:10:41;4.00;99.90
46137;DHT22;31871;49.418;8.752;2022-12-07T07:13:07;4.00;99.90
46137;DHT22;31871;49.418;8.752;2022-12-07T07:15:34;4.00;99.90
46137;DHT22;31871;49.418;8.752;2022-12-07T07:17:59;4.00;99.90
46137;DHT22;31871;49.418;8.752;2022-12-07T07:20:26;4.00;99.90
46137;DHT22;31871;49.418;8.752;2022-12-07T07:22:54;4.00;99.90
46137;DHT22;31871;49.418;8.752;2022-12-07T07:25:20;3.90;99.90
46137;DHT22;31871;49.418;8.752;2022-12-07T07:27:45;3.90;99.90
46137;DHT22;31871;49.418;8.752;2022-12-07T07:30:11;3.90;99.90
46137;DHT22;31871;49.418;8.752;2022-12-07T07:32:37;4.00;99.90
46137;DHT22;31871;49.418;8.752;2022-12-07T07:35:03;4.00;99.90
46137;DHT22;31871;49.418;8.752;2022-12-07T07:37:28;4.00;99.90
46137;DHT22;31871;49.418;8.752;2022-12-07T07:39:54;4.00;99.90
46137;DHT22;31871;49.418;8.752;2022-12-07T07:42:19;4.00;99.90
46137;DHT22;31871;49.418;8.752;2022-12-07T07:44:45;4.00;99.90
46137;DHT22;31871;49.418;8.752;2022-12-07T07:47:10;4.00;99.90
46137;DHT22;31871;49.418;8.752;2022-12-07T07:49:36;3.90;99.90
46137;DHT22;31871;49.418;8.752;2022-12-07T07:52:02;4.00;99.90
46137;DHT22;31871;49.418;8.752;2022-12-07T07:54:28;4.00;99.90
46137;DHT22;31871;49.418;8.752;2022-12-07T07:56:54;4.00;99.90
46137;DHT22;31871;49.418;8.752;2022-12-07T07:59:19;4.10;99.90
46137;DHT22;31871;49.418;8.752;2022-12-07T08:01:45;4.10;99.90
46137;DHT22;31871;49.418;8.752;2022-12-07T08:04:10;4.10;99.90
46137;DHT22;31871;49.418;8.752;2022-12-07T08:06:36;4.00;99.90
46137;DHT22;31871;49.418;8.752;2022-12-07T08:09:02;4.10;99.90
46137;DHT22;31871;49.418;8.752;2022-12-07T08:11:28;4.20;99.90
46137;DHT22;31871;49.418;8.752;2022-12-07T08:13:54;4.10;99.90
46137;DHT22;31871;49.418;8.752;2022-12-07T08:16:20;4.10;99.90
46137;DHT22;31871;49.418;8.752;2022-12-07T08:18:45;4.10;99.90
46137;DHT22;31871;49.418;8.752;2022-12-07T08:21:14;4.10;99.90
46137;DHT22;31871;49.418;8.752;2022-12-07T08:23:40;4.10;99.90
46137;DHT22;31871;49.418;8.752;2022-12-07T08:26:09;4.10;99.90
46137;DHT22;31871;49.418;8.752;2022-12-07T08:28:36;4.10;99.90
46137;DHT22;31871;49.418;8.752;2022-12-07T08:31:19;4.10;99.90
46137;DHT22;31871;49.418;8.752;2022-12-07T08:33:46;4.20;99.90
46137;DHT22;31871;49.418;8.752;2022-12-07T08:36:13;4.10;99.90
46137;DHT22;31871;49.418;8.752;2022-12-07T08:38:40;4.20;99.90
46137;DHT22;31871;49.418;8.752;2022-12-07T08:41:06;4.20;99.90
46137;DHT22;31871;49.418;8.752;2022-12-07T08:43:32;4.10;99.90
46137;DHT22;31871;49.418;8.752;2022-12-07T08:46:09;4.10;99.90
46137;DHT22;31871;49.418;8.752;2022-12-07T08:48:42;4.10;99.90
46137;DHT22;31871;49.418;8.752;2022-12-07T08:51:09;4.10;99.90
46137;DHT22;31871;49.418;8.752;2022-12-07T08:53:37;4.10;99.90
46137;DHT22;31871;49.418;8.752;2022-12-07T08:56:03;4.20;99.90
46137;DHT22;31871;49.418;8.752;2022-12-07T08:58:29;4.30;99.90
46137;DHT22;31871;49.418;8.752;2022-12-07T09:00:55;4.30;99.90
46137;DHT22;31871;49.418;8.752;2022-12-07T09:03:21;4.40;99.90
46137;DHT22;31871;49.418;8.752;2022-12-07T09:05:47;4.40;99.90
46137;DHT22;31871;49.418;8.752;2022-12-07T09:08:12;4.30;99.90
46137;DHT22;31871;49.418;8.752;2022-12-07T09:10:38;4.30;99.90
46137;DHT22;31871;49.418;8.752;2022-12-07T09:13:04;4.30;99.90
46137;DHT22;31871;49.418;8.752;2022-12-07T09:15:30;4.30;99.90
46137;DHT22;31871;49.418;8.752;2022-12-07T09:17:56;4.30;99.90
46137;DHT22;31871;49.418;8.752;2022-12-07T09:20:22;4.30;99.90
46137;DHT22;31871;49.418;8.752;2022-12-07T09:22:47;4.30;99.90
46137;DHT22;31871;49.418;8.752;2022-12-07T09:25:13;4.30;99.90
46137;DHT22;31871;49.418;8.752;2022-12-07T09:27:39;4.30;99.90
46137;DHT22;31871;49.418;8.752;2022-12-07T09:30:05;4.30;99.90
46137;DHT22;31871;49.418;8.752;2022-12-07T09:32:31;4.30;99.90
46137;DHT22;31871;49.418;8.752;2022-12-07T09:34:57;4.30;99.90
46137;DHT22;31871;49.418;8.752;2022-12-07T09:37:23;4.30;99.90
46137;DHT22;31871;49.418;8.752;2022-12-07T09:39:48;4.30;99.90
46137;DHT22;31871;49.418;8.752;2022-12-07T09:42:36;4.30;99.90
46137;DHT22;31871;49.418;8.752;2022-12-07T09:45:05;4.40;99.90
46137;DHT22;31871;49.418;8.752;2022-12-07T09:47:32;4.40;99.90
46137;DHT22;31871;49.418;8.752;2022-12-07T09:50:14;4.40;99.90
46137;DHT22;31871;49.418;8.752;2022-12-07T09:52:40;4.50;99.90
46137;DHT22;31871;49.418;8.752;2022-12-07T09:55:12;4.60;99.90
46137;DHT22;31871;49.418;8.752;2022-12-07T09:57:38;4.60;99.90
46137;DHT22;31871;49.418;8.752;2022-12-07T10:00:10;4.60;99.90
46137;DHT22;31871;49.418;8.752;2022-12-07T10:02:42;4.60;99.90
46137;DHT22;31871;49.418;8.752;2022-12-07T10:05:46;4.50;99.90
46137;DHT22;31871;49.418;8.752;2022-12-07T10:08:13;4.50;99.90
46137;DHT22;31871;49.418;8.752;2022-12-07T10:10:40;4.50;99.90
46137;DHT22;31871;49.418;8.752;2022-12-07T10:13:12;4.50;99.90
46137;DHT22;31871;49.418;8.752;2022-12-07T10:21:25;4.60;99.90
46137;DHT22;31871;49.418;8.752;2022-12-07T10:24:13;4.70;99.90
46137;DHT22;31871;49.418;8.752;2022-12-07T10:31:39;4.70;99.90
46137;DHT22;31871;49.418;8.752;2022-12-07T10:34:31;4.70;99.90
46137;DHT22;31871;49.418;8.752;2022-12-07T10:39:55;4.70;99.90
46137;DHT22;31871;49.418;8.752;2022-12-07T10:42:26;4.70;99.90
46137;DHT22;31871;49.418;8.752;2022-12-07T10:45:14;4.70;99.90
46137;DHT22;31871;49.418;8.752;2022-12-07T10:55:53;4.70;99.90
46137;DHT22;31871;49.418;8.752;2022-12-07T11:01:25;4.80;99.90
46137;DHT22;31871;49.418;8.752;2022-12-07T11:06:37;4.80;99.90
46137;DHT22;31871;49.418;8.752;2022-12-07T11:12:12;4.80;99.90
46137;DHT22;31871;49.418;8.752;2022-12-07T11:14:55;4.90;99.90
46137;DHT22;31871;49.418;8.752;2022-12-07T11:25:32;5.10;99.90
46137;DHT22;31871;49.418;8.752;2022-12-07T11:31:29;5.20;99.90
46137;DHT22;31871;49.418;8.752;2022-12-07T11:33:57;5.10;99.90
46137;DHT22;31871;49.418;8.752;2022-12-07T11:36:39;5.10;99.90
46137;DHT22;31871;49.418;8.752;2022-12-07T11:39:30;5.10;99.90
46137;DHT22;31871;49.418;8.752;2022-12-07T11:42:05;5.00;99.90
46137;DHT22;31871;49.418;8.752;2022-12-07T11:47:41;4.90;99.90
46137;DHT22;31871;49.418;8.752;2022-12-07T11:53:29;4.90;99.90
46137;DHT22;31871;49.418;8.752;2022-12-07T11:56:02;5.00;99.90
46137;DHT22;31871;49.418;8.752;2022-12-07T12:03:53;5.10;99.90
46137;DHT22;31871;49.418;8.752;2022-12-07T12:06:22;5.10;99.90
46137;DHT22;31871;49.418;8.752;2022-12-07T12:08:55;5.00;99.90
46137;DHT22;31871;49.418;8.752;2022-12-07T12:19:36;4.90;99.90
46137;DHT22;31871;49.418;8.752;2022-12-07T12:22:17;4.90;99.90
46137;DHT22;31871;49.418;8.752;2022-12-07T12:24:45;5.00;99.90
46137;DHT22;31871;49.418;8.752;2022-12-07T12:27:32;5.10;99.90
46137;DHT22;31871;49.418;8.752;2022-12-07T12:30:02;5.20;99.90
46137;DHT22;31871;49.418;8.752;2022-12-07T12:32:48;5.30;99.90
46137;DHT22;31871;49.418;8.752;2022-12-07T12:37:53;5.20;99.90
46137;DHT22;31871;49.418;8.752;2022-12-07T12:42:55;5.10;99.90
46137;DHT22;31871;49.418;8.752;2022-12-07T12:48:26;5.10;99.90
46137;DHT22;31871;49.418;8.752;2022-12-07T12:50:41;5.20;99.90
46137;DHT22;31871;49.418;8.752;2022-12-07T12:53:22;5.20;99.90
46137;DHT22;31871;49.418;8.752;2022-12-07T12:56:29;5.20;99.90
46137;DHT22;31871;49.418;8.752;2022-12-07T12:59:25;5.20;99.90
46137;DHT22;31871;49.418;8.752;2022-12-07T13:02:06;5.20;99.90
46137;DHT22;31871;49.418;8.752;2022-12-07T13:18:02;5.10;99.90
46137;DHT22;31871;49.418;8.752;2022-12-07T13:20:56;5.10;99.90
46137;DHT22;31871;49.418;8.752;2022-12-07T13:23:25;5.10;99.90
46137;DHT22;31871;49.418;8.752;2022-12-07T13:28:38;5.10;99.90
46137;DHT22;31871;49.418;8.752;2022-12-07T13:31:34;5.10;99.90
46137;DHT22;31871;49.418;8.752;2022-12-07T13:34:01;5.10;99.90
46137;DHT22;31871;49.418;8.752;2022-12-07T13:36:30;5.10;99.90
46137;DHT22;31871;49.418;8.752;2022-12-07T13:39:10;5.10;99.90
46137;DHT22;31871;49.418;8.752;2022-12-07T13:41:36;5.10;99.90
46137;DHT22;31871;49.418;8.752;2022-12-07T13:44:15;5.10;99.90
46137;DHT22;31871;49.418;8.752;2022-12-07T13:49:23;5.10;99.90
46137;DHT22;31871;49.418;8.752;2022-12-07T13:51:49;5.20;99.90
46137;DHT22;31871;49.418;8.752;2022-12-07T13:54:15;5.20;99.90
46137;DHT22;31871;49.418;8.752;2022-12-07T13:56:41;5.20;99.90
46137;DHT22;31871;49.418;8.752;2022-12-07T13:59:21;5.20;99.90
46137;DHT22;31871;49.418;8.752;2022-12-07T14:01:49;5.20;99.90
46137;DHT22;31871;49.418;8.752;2022-12-07T14:06:59;5.10;99.90
46137;DHT22;31871;49.418;8.752;2022-12-07T14:09:28;5.10;99.90
46137;DHT22;31871;49.418;8.752;2022-12-07T14:11:55;5.20;99.90
46137;DHT22;31871;49.418;8.752;2022-12-07T14:14:25;5.20;99.90
46137;DHT22;31871;49.418;8.752;2022-12-07T14:22:33;5.20;99.90
46137;DHT22;31871;49.418;8.752;2022-12-07T14:30:18;5.20;99.90
46137;DHT22;31871;49.418;8.752;2022-12-07T14:32:44;5.10;99.90
46137;DHT22;31871;49.418;8.752;2022-12-07T14:35:15;5.10;99.90
46137;DHT22;31871;49.418;8.752;2022-12-07T14:37:43;5.10;99.90
46137;DHT22;31871;49.418;8.752;2022-12-07T14:40:16;5.10;99.90
46137;DHT22;31871;49.418;8.752;2022-12-07T14:42:43;5.10;99.90
46137;DHT22;31871;49.418;8.752;2022-12-07T14:45:19;5.20;99.90
46137;DHT22;31871;49.418;8.752;2022-12-07T14:47:45;5.20;99.90
46137;DHT22;31871;49.418;8.752;2022-12-07T14:50:13;5.20;99.90
46137;DHT22;31871;49.418;8.752;2022-12-07T14:52:40;5.20;99.90
46137;DHT22;31871;49.418;8.752;2022-12-07T14:55:33;5.20;99.90
46137;DHT22;31871;49.418;8.752;2022-12-07T14:58:00;5.30;99.90
46137;DHT22;31871;49.418;8.752;2022-12-07T15:00:27;5.40;99.90
46137;DHT22;31871;49.418;8.752;2022-12-07T15:02:53;5.40;99.90
46137;DHT22;31871;49.418;8.752;2022-12-07T15:05:19;5.50;99.90
46137;DHT22;31871;49.418;8.752;2022-12-07T15:07:45;5.50;99.90
46137;DHT22;31871;49.418;8.752;2022-12-07T15:10:16;5.50;99.90
46137;DHT22;31871;49.418;8.752;2022-12-07T15:12:43;5.40;99.90
46137;DHT22;31871;49.418;8.752;2022-12-07T15:15:09;5.40;99.90
46137;DHT22;31871;49.418;8.752;2022-12-07T15:17:34;5.30;99.90
46137;DHT22;31871;49.418;8.752;2022-12-07T15:20:00;5.40;99.90
46137;DHT22;31871;49.418;8.752;2022-12-07T15:22:26;5.30;99.90
46137;DHT22;31871;49.418;8.752;2022-12-07T15:24:51;5.20;99.90
46137;DHT22;31871;49.418;8.752;2022-12-07T15:27:17;5.20;99.90
46137;DHT22;31871;49.418;8.752;2022-12-07T15:29:42;5.30;99.90
46137;DHT22;31871;49.418;8.752;2022-12-07T15:32:08;5.30;99.90
46137;DHT22;31871;49.418;8.752;2022-12-07T15:34:33;5.30;99.90
46137;DHT22;31871;49.418;8.752;2022-12-07T15:36:59;5.20;99.90
46137;DHT22;31871;49.418;8.752;2022-12-07T15:39:24;5.20;99.90
46137;DHT22;31871;49.418;8.752;2022-12-07T15:41:50;5.20;99.90
46137;DHT22;31871;49.418;8.752;2022-12-07T15:44:16;5.20;99.90
46137;DHT22;31871;49.418;8.752;2022-12-07T15:47:00;5.20;99.90
46137;DHT22;31871;49.418;8.752;2022-12-07T15:49:26;5.10;99.90
46137;DHT22;31871;49.418;8.752;2022-12-07T15:51:53;5.20;99.90
46137;DHT22;31871;49.418;8.752;2022-12-07T15:54:25;5.20;99.90
46137;DHT22;31871;49.418;8.752;2022-12-07T15:56:51;5.20;99.90
46137;DHT22;31871;49.418;8.752;2022-12-07T15:59:16;5.20;99.90
46137;DHT22;31871;49.418;8.752;2022-12-07T16:01:42;5.30;99.90
46137;DHT22;31871;49.418;8.752;2022-12-07T16:04:08;5.20;99.90
46137;DHT22;31871;49.418;8.752;2022-12-07T16:06:33;5.20;99.90
46137;DHT22;31871;49.418;8.752;2022-12-07T16:08:59;5.20;99.90
46137;DHT22;31871;49.418;8.752;2022-12-07T16:11:25;5.20;99.90
46137;DHT22;31871;49.418;8.752;2022-12-07T16:13:50;5.10;99.90
46137;DHT22;31871;49.418;8.752;2022-12-07T16:16:17;5.10;99.90
46137;DHT22;31871;49.418;8.752;2022-12-07T16:18:45;5.20;99.90
46137;DHT22;31871;49.418;8.752;2022-12-07T16:21:11;5.20;99.90
46137;DHT22;31871;49.418;8.752;2022-12-07T16:23:37;5.30;99.90
46137;DHT22;31871;49.418;8.752;2022-12-07T16:26:08;5.30;99.90
46137;DHT22;31871;49.418;8.752;2022-12-07T16:28:34;5.30;99.90
46137;DHT22;31871;49.418;8.752;2022-12-07T16:31:02;5.20;99.90
46137;DHT22;31871;49.418;8.752;2022-12-07T16:33:28;5.20;99.90
46137;DHT22;31871;49.418;8.752;2022-12-07T16:35:54;5.20;99.90
46137;DHT22;31871;49.418;8.752;2022-12-07T16:38:19;5.20;99.90
46137;DHT22;31871;49.418;8.752;2022-12-07T16:40:47;5.30;99.90
46137;DHT22;31871;49.418;8.752;2022-12-07T16:43:13;5.30;99.90
46137;DHT22;31871;49.418;8.752;2022-12-07T16:45:39;5.40;99.90
46137;DHT22;31871;49.418;8.752;2022-12-07T16:48:05;5.40;99.90
46137;DHT22;31871;49.418;8.752;2022-12-07T16:50:30;5.40;99.90
46137;DHT22;31871;49.418;8.752;2022-12-07T16:52:56;5.40;99.90
46137;DHT22;31871;49.418;8.752;2022-12-07T16:55:22;5.40;99.90
46137;DHT22;31871;49.418;8.752;2022-12-07T16:57:47;5.30;99.90
46137;DHT22;31871;49.418;8.752;2022-12-07T17:00:13;5.30;99.90
46137;DHT22;31871;49.418;8.752;2022-12-07T17:02:39;5.40;99.90
46137;DHT22;31871;49.418;8.752;2022-12-07T17:05:04;5.40;99.90
46137;DHT22;31871;49.418;8.752;2022-12-07T17:07:31;5.40;99.90
46137;DHT22;31871;49.418;8.752;2022-12-07T17:09:56;5.30;99.90
46137;DHT22;31871;49.418;8.752;2022-12-07T17:12:22;5.40;99.90
46137;DHT22;31871;49.418;8.752;2022-12-07T17:14:48;5.40;99.90
46137;DHT22;31871;49.418;8.752;2022-12-07T17:17:32;5.40;99.90
46137;DHT22;31871;49.418;8.752;2022-12-07T17:19:58;5.40;99.90
46137;DHT22;31871;49.418;8.752;2022-12-07T17:22:23;5.50;99.90
46137;DHT22;31871;49.418;8.752;2022-12-07T17:24:49;5.50;99.90
46137;DHT22;31871;49.418;8.752;2022-12-07T17:27:14;5.50;99.90
46137;DHT22;31871;49.418;8.752;2022-12-07T17:29:40;5.50;99.90
46137;DHT22;31871;49.418;8.752;2022-12-07T17:32:06;5.30;99.90
46137;DHT22;31871;49.418;8.752;2022-12-07T17:34:31;5.40;99.90
46137;DHT22;31871;49.418;8.752;2022-12-07T17:36:57;5.60;99.90
46137;DHT22;31871;49.418;8.752;2022-12-07T17:39:22;5.70;99.90
46137;DHT22;31871;49.418;8.752;2022-12-07T17:41:48;5.70;99.90
46137;DHT22;31871;49.418;8.752;2022-12-07T17:44:32;5.80;99.90
46137;DHT22;31871;49.418;8.752;2022-12-07T17:46:58;5.80;99.90
46137;DHT22;31871;49.418;8.752;2022-12-07T17:49:25;5.80;99.90
46137;DHT22;31871;49.418;8.752;2022-12-07T17:51:51;5.80;99.90
46137;DHT22;31871;49.418;8.752;2022-12-07T17:54:35;5.70;99.90
46137;DHT22;31871;49.418;8.752;2022-12-07T17:57:01;5.60;99.90
46137;DHT22;31871;49.418;8.752;2022-12-07T17:59:26;5.50;99.90
46137;DHT22;31871;49.418;8.752;2022-12-07T18:01:52;5.50;99.90
46137;DHT22;31871;49.418;8.752;2022-12-07T18:04:18;5.40;99.90
46137;DHT22;31871;49.418;8.752;2022-12-07T18:06:44;5.40;99.90
46137;DHT22;31871;49.418;8.752;2022-12-07T18:09:10;5.40;99.90
46137;DHT22;31871;49.418;8.752;2022-12-07T18:11:36;5.40;99.90